Time;durP1;ratioP1;P1;durP2;ratioP2;P2;SDS_P1;SDS_P2;PMS_P1;PMS_P2;Temp;Humidity;BMP_temperature;BMP_pressure;BME280_temperature;BME280_humidity;BME280_pressure;Samples;Min_cycle;Max_cycle;Signal;HPM_P1;HPM_P2
2023/01/18 05:18:08;;;;;;;2.42;0.70;;;;;;;;;;5072372;23;20116;-66
2023/01/18 05:20:34;;;;;;;1.85;0.85;;;;;;;;;;4914547;29;20039;-65
2023/01/18 05:23:09;;;;;;;1.33;0.70;;;;;;;;;;4899284;29;20035;-65
2023/01/18 05:25:35;;;;;;;2.33;1.00;;;;;;;;;;4918215;29;20020;-66
2023/01/18 05:28:01;;;;;;;1.40;0.70;;;;;;;;;;4918207;29;20032;-74
2023/01/18 07:23:51;;;;;;;3.35;1.40;;;;;;;;;;4847732;23;20051;-67
2023/01/18 07:26:17;;;;;;;5.25;1.60;;;;;;;;;;4934827;29;20079;-67
2023/01/18 07:28:43;;;;;;;4.40;1.58;;;;;;;;;;4934619;29;20024;-65
2023/01/18 07:31:09;;;;;;;4.50;1.38;;;;;;;;;;4935127;29;20028;-71
2023/01/18 07:33:36;;;;;;;4.80;1.30;;;;;;;;;;4934503;29;20027;-62
2023/01/18 07:36:06;;;;;;;3.60;1.17;;;;;;;;;;4934129;29;20027;-61
2023/01/18 07:38:32;;;;;;;4.22;1.27;;;;;;;;;;4934721;29;20036;-61
2023/01/18 07:41:02;;;;;;;3.20;1.50;;;;;;;;;;4934753;29;20031;-64
2023/01/18 07:43:31;;;;;;;2.55;1.30;;;;;;;;;;4934296;29;20024;-62
2023/01/18 07:45:58;;;;;;;10.90;4.95;;;;;;;;;;4933467;29;20038;-62
2023/01/18 07:48:27;;;;;;;5.28;2.50;;;;;;;;;;4934275;29;20066;-72
2023/01/18 07:50:54;;;;;;;4.15;2.08;;;;;;;;;;4934203;29;20090;-62
2023/01/18 07:53:20;;;;;;;3.65;1.40;;;;;;;;;;4934582;29;20047;-62
2023/01/18 07:55:46;;;;;;;5.63;1.65;;;;;;;;;;4934572;29;20115;-62
2023/01/18 07:58:12;;;;;;;3.20;1.38;;;;;;;;;;4917123;29;20111;-63
2023/01/18 08:00:39;;;;;;;7.30;1.60;;;;;;;;;;4917015;29;20040;-62
2023/01/18 08:03:05;;;;;;;6.72;1.63;;;;;;;;;;4934621;29;20040;-62
2023/01/18 08:05:31;;;;;;;5.10;1.73;;;;;;;;;;4934268;29;20024;-63
2023/01/18 08:07:57;;;;;;;4.55;1.90;;;;;;;;;;4934360;29;20028;-62
2023/01/18 08:10:26;;;;;;;4.25;2.03;;;;;;;;;;4934058;29;20020;-62
2023/01/18 08:12:52;;;;;;;6.78;2.00;;;;;;;;;;4934531;29;20035;-62
2023/01/18 08:15:18;;;;;;;4.57;1.80;;;;;;;;;;4934518;29;20028;-70
2023/01/18 08:17:44;;;;;;;4.03;1.80;;;;;;;;;;4934291;29;20024;-62
2023/01/18 08:20:10;;;;;;;5.85;2.22;;;;;;;;;;4933540;29;20038;-61
2023/01/18 08:22:36;;;;;;;6.93;1.92;;;;;;;;;;4933073;29;20110;-62
2023/01/18 08:25:03;;;;;;;7.45;1.40;;;;;;;;;;4933838;29;20031;-61
2023/01/18 08:27:29;;;;;;;4.22;2.05;;;;;;;;;;4932721;29;20419;-62
2023/01/18 08:29:56;;;;;;;4.82;1.80;;;;;;;;;;4933561;29;20464;-61
2023/01/18 08:32:22;;;;;;;7.00;2.45;;;;;;;;;;4933578;29;20095;-61
2023/01/18 08:34:48;;;;;;;4.03;1.70;;;;;;;;;;4933863;29;20446;-64
2023/01/18 08:37:15;;;;;;;2.65;1.35;;;;;;;;;;4934003;29;20020;-63
2023/01/18 08:39:41;;;;;;;4.45;2.03;;;;;;;;;;4933923;29;20055;-63
2023/01/18 08:42:10;;;;;;;4.40;2.00;;;;;;;;;;4933411;29;20039;-61
2023/01/18 08:44:36;;;;;;;3.45;1.85;;;;;;;;;;4915837;29;20433;-63
2023/01/18 08:47:02;;;;;;;5.80;1.70;;;;;;;;;;4933225;29;20031;-61
2023/01/18 08:49:28;;;;;;;5.95;2.70;;;;;;;;;;4933767;29;20026;-61
2023/01/18 08:51:56;;;;;;;4.30;2.00;;;;;;;;;;4932798;29;20043;-62
2023/01/18 08:54:23;;;;;;;5.28;2.45;;;;;;;;;;4933572;29;20032;-75
2023/01/18 08:56:49;;;;;;;7.47;2.60;;;;;;;;;;4933159;29;20114;-69
2023/01/18 08:59:15;;;;;;;10.32;3.80;;;;;;;;;;4933251;29;20059;-61
2023/01/18 09:01:41;;;;;;;14.18;3.67;;;;;;;;;;4933281;29;20067;-62
2023/01/18 09:04:07;;;;;;;11.88;3.95;;;;;;;;;;4915780;29;20467;-63
2023/01/18 09:06:34;;;;;;;5.93;2.60;;;;;;;;;;4933492;29;20024;-61
2023/01/18 09:09:00;;;;;;;6.05;2.17;;;;;;;;;;4933596;29;20059;-62
2023/01/18 09:11:27;;;;;;;4.80;1.85;;;;;;;;;;4933580;29;20043;-62
2023/01/18 09:13:53;;;;;;;4.32;2.13;;;;;;;;;;4933433;29;20028;-66
2023/01/18 09:16:20;;;;;;;5.90;2.22;;;;;;;;;;4933581;29;20060;-62
2023/01/18 09:18:46;;;;;;;3.95;1.65;;;;;;;;;;4933419;29;20043;-62
2023/01/18 09:21:12;;;;;;;4.88;1.70;;;;;;;;;;4933141;29;20040;-61
2023/01/18 09:23:39;;;;;;;4.50;1.90;;;;;;;;;;4933253;29;20056;-62
2023/01/18 09:26:05;;;;;;;12.55;2.15;;;;;;;;;;4933567;29;20024;-62
2023/01/18 09:28:32;;;;;;;6.60;2.50;;;;;;;;;;4933443;29;20051;-63
2023/01/18 09:31:05;;;;;;;4.80;2.00;;;;;;;;;;4933452;29;20059;-70
2023/01/18 09:33:31;;;;;;;4.30;2.33;;;;;;;;;;4933465;29;20038;-62
2023/01/18 09:36:00;;;;;;;2.92;1.10;;;;;;;;;;4933304;29;20027;-61
2023/01/18 09:38:26;;;;;;;3.70;1.65;;;;;;;;;;4933490;29;20035;-63
2023/01/18 09:40:53;;;;;;;3.17;1.33;;;;;;;;;;4933343;29;20039;-63
2023/01/18 09:43:30;;;;;;;4.03;1.70;;;;;;;;;;4933040;29;20403;-62
2023/01/18 09:45:56;;;;;;;2.97;1.20;;;;;;;;;;4933214;29;20381;-61
2023/01/18 09:48:27;;;;;;;3.25;1.35;;;;;;;;;;4916154;29;20024;-62
2023/01/18 09:50:53;;;;;;;4.18;1.35;;;;;;;;;;4933122;29;20032;-62
2023/01/18 09:53:22;;;;;;;4.30;1.65;;;;;;;;;;4933247;29;20024;-62
2023/01/18 09:55:57;;;;;;;6.78;2.05;;;;;;;;;;4933319;29;20027;-62
2023/01/18 09:58:36;;;;;;;5.75;1.63;;;;;;;;;;4932795;29;20024;-62
2023/01/18 10:01:05;;;;;;;5.18;1.30;;;;;;;;;;4932762;29;20035;-62
2023/01/18 10:03:34;;;;;;;4.57;2.22;;;;;;;;;;4933163;29;20078;-62
2023/01/18 10:06:09;;;;;;;3.33;1.60;;;;;;;;;;4932865;29;20028;-62
2023/01/18 10:08:38;;;;;;;3.88;1.00;;;;;;;;;;4934040;29;20035;-62
2023/01/18 10:11:10;;;;;;;2.47;0.80;;;;;;;;;;4936414;29;20030;-63
2023/01/18 10:13:36;;;;;;;2.13;1.23;;;;;;;;;;4936504;29;20032;-62
2023/01/18 10:16:03;;;;;;;2.58;1.15;;;;;;;;;;4935968;29;20024;-62
2023/01/18 10:18:29;;;;;;;3.15;1.15;;;;;;;;;;4936343;29;20036;-63
2023/01/18 10:20:58;;;;;;;2.65;1.30;;;;;;;;;;4935860;29;20487;-62
2023/01/18 10:23:27;;;;;;;2.55;0.93;;;;;;;;;;4935765;29;20074;-62
2023/01/18 10:26:00;;;;;;;2.38;1.20;;;;;;;;;;4936279;29;20098;-61
2023/01/18 10:28:26;;;;;;;3.67;0.90;;;;;;;;;;4935843;29;20028;-62
2023/01/18 10:31:00;;;;;;;6.28;1.25;;;;;;;;;;4936115;29;20027;-63
2023/01/18 10:33:28;;;;;;;1.88;0.80;;;;;;;;;;4936063;29;20024;-61
2023/01/18 10:35:59;;;;;;;3.53;1.55;;;;;;;;;;4936217;29;20098;-61
2023/01/18 10:38:27;;;;;;;3.67;1.50;;;;;;;;;;4935744;29;20030;-60
2023/01/18 10:40:57;;;;;;;3.75;1.77;;;;;;;;;;4936010;29;20044;-60
2023/01/18 10:43:24;;;;;;;3.17;1.27;;;;;;;;;;4935862;29;20028;-61
2023/01/18 10:45:52;;;;;;;6.88;1.75;;;;;;;;;;4936083;29;20027;-62
2023/01/18 10:48:18;;;;;;;3.15;1.30;;;;;;;;;;4935878;29;20550;-61
2023/01/18 10:50:45;;;;;;;4.88;1.35;;;;;;;;;;4918552;29;20119;-61
2023/01/18 10:53:20;;;;;;;6.13;1.92;;;;;;;;;;4935589;29;20497;-61
2023/01/18 10:56:07;;;;;;;3.50;1.20;;;;;;;;;;4935934;29;20586;-61
2023/01/18 10:58:46;;;;;;;6.35;1.05;;;;;;;;;;4935725;29;20063;-61
2023/01/18 11:01:21;;;;;;;2.42;0.90;;;;;;;;;;4935634;29;20063;-74
2023/01/18 11:03:48;;;;;;;2.55;1.10;;;;;;;;;;4935655;29;20122;-73
2023/01/18 11:06:19;;;;;;;2.13;0.98;;;;;;;;;;4935622;29;20439;-62
2023/01/18 11:08:45;;;;;;;3.92;1.40;;;;;;;;;;4935381;29;20464;-62
2023/01/18 11:11:11;;;;;;;5.10;1.67;;;;;;;;;;4918062;29;20051;-61
2023/01/18 11:13:42;;;;;;;4.55;2.08;;;;;;;;;;4935451;29;20048;-62
2023/01/18 11:16:12;;;;;;;4.55;2.20;;;;;;;;;;4935087;29;20027;-62
2023/01/18 11:18:55;;;;;;;5.50;2.50;;;;;;;;;;4935305;29;20432;-62
2023/01/18 11:21:21;;;;;;;5.10;2.00;;;;;;;;;;4934844;29;20554;-61
2023/01/18 11:23:48;;;;;;;5.00;1.60;;;;;;;;;;4934379;29;20056;-71
2023/01/18 11:26:19;;;;;;;2.50;1.13;;;;;;;;;;4934885;29;20487;-75
2023/01/18 11:28:52;;;;;;;7.93;1.20;;;;;;;;;;4935070;29;20729;-66
2023/01/18 11:31:22;;;;;;;5.10;1.38;;;;;;;;;;4934952;29;20027;-61
2023/01/18 11:33:55;;;;;;;4.47;0.80;;;;;;;;;;4934856;29;20060;-61
2023/01/18 11:36:33;;;;;;;2.80;0.90;;;;;;;;;;4934935;29;20039;-61
2023/01/18 11:39:18;;;;;;;1.70;0.90;;;;;;;;;;4934612;29;20106;-65
2023/01/18 11:41:44;;;;;;;7.05;1.50;;;;;;;;;;4934665;29;20043;-62
2023/01/18 11:44:24;;;;;;;4.32;1.85;;;;;;;;;;4934593;29;20020;-62
2023/01/18 11:46:52;;;;;;;3.90;1.60;;;;;;;;;;4934698;29;20032;-63
2023/01/18 11:49:37;;;;;;;4.50;1.42;;;;;;;;;;4934548;29;20060;-63
2023/01/18 11:52:11;;;;;;;3.10;1.30;;;;;;;;;;4934403;29;20047;-64
2023/01/18 11:54:59;;;;;;;3.95;1.50;;;;;;;;;;4934606;29;20030;-62
2023/01/18 11:57:27;;;;;;;3.72;1.30;;;;;;;;;;4934630;29;20365;-61
2023/01/18 11:59:53;;;;;;;4.15;1.80;;;;;;;;;;4934516;29;20032;-62
2023/01/18 12:02:26;;;;;;;4.85;1.40;;;;;;;;;;4934355;29;20035;-62
2023/01/18 12:04:58;;;;;;;7.20;2.00;;;;;;;;;;4934500;29;20063;-71
2023/01/18 12:07:30;;;;;;;5.72;1.40;;;;;;;;;;4934166;29;20057;-62
2023/01/18 12:09:56;;;;;;;;;;;;;;;;;;4935096;29;20028;-62
2023/01/18 12:12:28;;;;;;;5.50;2.08;;;;;;;;;;4917111;29;20290;-61
2023/01/18 12:15:01;;;;;;;5.43;1.95;;;;;;;;;;4934445;29;20039;-62
2023/01/18 12:17:30;;;;;;;5.15;1.90;;;;;;;;;;4933663;29;20046;-63
2023/01/18 12:20:01;;;;;;;14.02;2.40;;;;;;;;;;4934066;29;20511;-63
2023/01/18 12:22:42;;;;;;;7.32;2.25;;;;;;;;;;4933454;29;20440;-76
2023/01/18 12:25:08;;;;;;;6.57;2.05;;;;;;;;;;4934261;29;20042;-62
2023/01/18 12:27:36;;;;;;;10.73;2.53;;;;;;;;;;4933912;29;20024;-61
2023/01/18 12:30:21;;;;;;;22.27;6.40;;;;;;;;;;4933867;29;20058;-62
2023/01/18 12:32:56;;;;;;;6.30;2.55;;;;;;;;;;4933393;29;20036;-62
2023/01/18 12:35:22;;;;;;;13.25;3.35;;;;;;;;;;4933783;29;20020;-70
2023/01/18 12:38:07;;;;;;;30.15;9.35;;;;;;;;;;4916637;29;20038;-62
2023/01/18 12:40:35;;;;;;;4.78;1.88;;;;;;;;;;4933963;29;20030;-62
2023/01/18 12:43:20;;;;;;;5.82;1.90;;;;;;;;;;4933851;29;20031;-61
2023/01/18 12:45:53;;;;;;;9.70;2.50;;;;;;;;;;4933893;29;20488;-62
2023/01/18 12:48:23;;;;;;;9.30;3.15;;;;;;;;;;4933934;29;20493;-61
2023/01/18 12:50:50;;;;;;;7.35;2.00;;;;;;;;;;4933776;29;20470;-61
2023/01/18 12:53:16;;;;;;;5.90;2.35;;;;;;;;;;4933408;29;20171;-62
2023/01/18 12:55:43;;;;;;;7.38;2.20;;;;;;;;;;4933939;29;20027;-72
2023/01/18 12:58:13;;;;;;;4.95;1.75;;;;;;;;;;4933637;29;20103;-65
2023/01/18 13:00:45;;;;;;;2.65;1.60;;;;;;;;;;4916318;29;20043;-61
2023/01/18 13:03:11;;;;;;;;;;;;;;;;;;4917629;29;20043;-61
2023/01/18 13:05:51;;;;;;;6.28;3.30;;;;;;;;;;4933846;29;19914;-61
2023/01/18 13:08:37;;;;;;;11.35;5.15;;;;;;;;;;4933580;29;20032;-61
2023/01/18 13:11:24;;;;;;;7.75;3.65;;;;;;;;;;4933690;29;20027;-62
2023/01/18 13:13:53;;;;;;;6.07;3.00;;;;;;;;;;4933571;29;20508;-62
2023/01/18 13:16:32;;;;;;;5.47;3.08;;;;;;;;;;4933429;29;20031;-61
2023/01/18 13:19:04;;;;;;;9.65;3.88;;;;;;;;;;4933557;29;20118;-61
2023/01/18 13:21:34;;;;;;;8.88;4.00;;;;;;;;;;4933245;29;20476;-62
2023/01/18 13:24:15;;;;;;;8.32;4.00;;;;;;;;;;4914547;29;20071;-61
2023/01/18 13:26:41;;;;;;;11.07;4.60;;;;;;;;;;4914378;29;20107;-61
2023/01/18 13:29:19;;;;;;;7.80;3.80;;;;;;;;;;4914412;29;20036;-61
2023/01/18 13:31:46;;;;;;;6.70;3.40;;;;;;;;;;4914211;29;20437;-61
2023/01/18 13:34:38;;;;;;;7.72;4.70;;;;;;;;;;4914281;29;20024;-61
2023/01/18 13:37:05;;;;;;;13.38;6.70;;;;;;;;;;4910010;29;20040;-62
2023/01/18 13:39:33;;;;;;;13.82;7.53;;;;;;;;;;4914269;29;20361;-61
2023/01/18 13:41:59;;;;;;;9.25;4.90;;;;;;;;;;4914158;29;20088;-61
2023/01/18 13:44:29;;;;;;;11.23;5.18;;;;;;;;;;4916584;29;20028;-72
2023/01/18 13:46:57;;;;;;;9.75;4.75;;;;;;;;;;4918004;29;20115;-62
2023/01/18 13:49:25;;;;;;;9.07;4.43;;;;;;;;;;4917803;29;20047;-62
2023/01/18 13:51:52;;;;;;;11.82;5.82;;;;;;;;;;4917277;29;20060;-62
2023/01/18 13:54:38;;;;;;;9.70;4.28;;;;;;;;;;4917716;29;20116;-62
2023/01/18 13:57:04;;;;;;;6.63;3.50;;;;;;;;;;4900792;29;20437;-61
2023/01/18 13:59:35;;;;;;;8.95;3.95;;;;;;;;;;4917596;29;20021;-62
2023/01/18 14:02:20;;;;;;;8.02;4.55;;;;;;;;;;4917562;29;20054;-61
2023/01/18 14:04:46;;;;;;;9.05;4.78;;;;;;;;;;4917610;29;20115;-61
2023/01/18 14:07:19;;;;;;;8.20;4.15;;;;;;;;;;4917367;29;20115;-61
2023/01/18 14:09:47;;;;;;;8.55;3.80;;;;;;;;;;4917688;29;20028;-61
2023/01/18 14:12:13;;;;;;;6.22;2.92;;;;;;;;;;4917620;29;20095;-61
2023/01/18 14:14:54;;;;;;;8.40;2.90;;;;;;;;;;4917574;29;20024;-62
2023/01/18 14:17:20;;;;;;;6.03;3.08;;;;;;;;;;4917536;29;20468;-61
2023/01/18 14:19:51;;;;;;;9.18;3.95;;;;;;;;;;4917141;29;20127;-60
2023/01/18 14:22:17;;;;;;;13.00;5.75;;;;;;;;;;4922162;29;20130;-61
2023/01/18 14:24:55;;;;;;;9.43;5.07;;;;;;;;;;4936281;29;20020;-61
2023/01/18 14:27:23;;;;;;;9.32;4.55;;;;;;;;;;4936426;29;20329;-60
2023/01/18 14:29:52;;;;;;;11.00;5.00;;;;;;;;;;4936025;29;20106;-61
2023/01/18 14:32:24;;;;;;;10.68;4.85;;;;;;;;;;4936129;29;20067;-61
2023/01/18 14:35:00;;;;;;;11.38;5.55;;;;;;;;;;4935713;29;20046;-61
2023/01/18 14:37:28;;;;;;;8.80;4.70;;;;;;;;;;4935717;29;20027;-61
2023/01/18 14:40:14;;;;;;;11.10;4.85;;;;;;;;;;4935973;29;20055;-70
2023/01/18 14:42:59;;;;;;;9.10;4.45;;;;;;;;;;4936043;29;20126;-63
2023/01/18 14:45:28;;;;;;;9.15;5.25;;;;;;;;;;4936090;29;20036;-63
2023/01/18 14:47:59;;;;;;;8.73;4.65;;;;;;;;;;4936271;29;20118;-63
2023/01/18 14:50:26;;;;;;;11.50;4.85;;;;;;;;;;4936203;29;20074;-63
2023/01/18 14:52:52;;;;;;;13.98;5.70;;;;;;;;;;4935461;29;20051;-63
2023/01/18 14:55:22;;;;;;;12.68;5.43;;;;;;;;;;4935872;29;20471;-63
2023/01/18 14:57:52;;;;;;;11.02;5.40;;;;;;;;;;4935727;29;20496;-63
2023/01/18 15:00:18;;;;;;;11.15;5.97;;;;;;;;;;4935153;29;20030;-71
2023/01/18 15:02:45;;;;;;;13.80;6.70;;;;;;;;;;4935681;29;20035;-60
2023/01/18 15:05:15;;;;;;;14.90;6.07;;;;;;;;;;4935706;29;20111;-62
2023/01/18 15:07:43;;;;;;;14.77;5.28;;;;;;;;;;4935599;29;20024;-62
2023/01/18 15:10:09;;;;;;;13.25;5.85;;;;;;;;;;4935599;29;20028;-63
2023/01/18 15:12:35;;;;;;;12.13;5.78;;;;;;;;;;4935319;29;20031;-60
2023/01/18 15:15:07;;;;;;;13.85;5.93;;;;;;;;;;4935481;29;20483;-78
2023/01/18 15:17:35;;;;;;;16.83;7.80;;;;;;;;;;4935384;29;20031;-78
2023/01/18 15:20:13;;;;;;;15.82;8.18;;;;;;;;;;4935221;29;20411;-74
2023/01/18 15:22:39;;;;;;;20.73;8.95;;;;;;;;;;4934590;29;20059;-62
2023/01/18 15:25:07;;;;;;;19.85;11.02;;;;;;;;;;4935361;29;20118;-63
2023/01/18 15:27:33;;;;;;;24.85;11.48;;;;;;;;;;4935142;29;20035;-78
2023/01/18 15:30:01;;;;;;;24.88;12.63;;;;;;;;;;4935143;29;20086;-63
2023/01/18 15:32:28;;;;;;;23.98;11.02;;;;;;;;;;4935411;29;20034;-63
2023/01/18 15:34:55;;;;;;;27.20;11.85;;;;;;;;;;4934740;29;20550;-62
2023/01/18 15:37:24;;;;;;;23.00;12.05;;;;;;;;;;4935077;29;20079;-63
2023/01/18 15:39:55;;;;;;;23.75;11.35;;;;;;;;;;4917758;29;20428;-62
2023/01/18 15:42:22;;;;;;;24.73;11.20;;;;;;;;;;4934832;29;20047;-62
2023/01/18 15:44:50;;;;;;;21.00;11.10;;;;;;;;;;4935015;29;20098;-62
2023/01/18 15:47:23;;;;;;;20.42;10.48;;;;;;;;;;4934847;29;20024;-67
2023/01/18 15:49:51;;;;;;;23.05;11.82;;;;;;;;;;4934705;29;20067;-62
2023/01/18 15:52:33;;;;;;;25.73;13.30;;;;;;;;;;4916955;29;20496;-62
2023/01/18 15:54:59;;;;;;;;;;;;;;;;;;4934820;29;20032;-62
2023/01/18 15:57:26;;;;;;;29.08;13.40;;;;;;;;;;4934559;29;19910;-62
2023/01/18 15:59:52;;;;;;;24.33;11.88;;;;;;;;;;4934688;29;20028;-63
2023/01/18 16:02:19;;;;;;;22.35;11.45;;;;;;;;;;4934420;29;20039;-62
2023/01/18 16:04:46;;;;;;;25.75;12.65;;;;;;;;;;4934668;29;20035;-62
2023/01/18 16:07:32;;;;;;;29.35;13.65;;;;;;;;;;4933772;29;20031;-62
2023/01/18 16:10:29;;;;;;;25.25;11.60;;;;;;;;;;4934616;29;20027;-62
2023/01/18 16:13:14;;;;;;;21.65;10.75;;;;;;;;;;4875348;29;20041;-70
2023/01/18 16:15:40;;;;;;;23.70;11.77;;;;;;;;;;4875649;29;20089;-67
2023/01/18 16:18:06;;;;;;;23.83;12.40;;;;;;;;;;4875233;29;20033;-74
2023/01/18 16:20:33;;;;;;;25.23;11.73;;;;;;;;;;4875242;29;20037;-70
2023/01/18 16:23:07;;;;;;;27.25;13.60;;;;;;;;;;4874465;29;20401;-70
2023/01/18 16:25:34;;;;;;;30.35;16.20;;;;;;;;;;4859838;29;20451;-70
2023/01/18 16:28:01;;;;;;;30.83;17.27;;;;;;;;;;4875165;29;20077;-71
2023/01/18 16:30:32;;;;;;;36.40;18.33;;;;;;;;;;4875000;29;20032;-73
2023/01/18 16:33:16;;;;;;;31.13;14.85;;;;;;;;;;4875010;29;20407;-68
2023/01/18 16:35:42;;;;;;;40.88;20.55;;;;;;;;;;4875016;29;20033;-70
2023/01/18 16:38:12;;;;;;;41.50;21.63;;;;;;;;;;4874860;29;20154;-69
2023/01/18 16:40:38;;;;;;;44.30;22.38;;;;;;;;;;4875015;29;20051;-69
2023/01/18 16:43:20;;;;;;;45.55;23.75;;;;;;;;;;4875043;29;20077;-71
2023/01/18 16:45:47;;;;;;;46.67;23.88;;;;;;;;;;4875235;29;20915;-69
2023/01/18 16:48:14;;;;;;;45.90;23.52;;;;;;;;;;4878540;29;20482;-68
2023/01/18 16:50:41;;;;;;;50.65;25.20;;;;;;;;;;4933641;29;20039;-69
2023/01/18 16:53:07;;;;;;;48.78;24.40;;;;;;;;;;4933504;29;20139;-70
2023/01/18 16:55:33;;;;;;;45.50;22.88;;;;;;;;;;4934060;29;20036;-70
2023/01/18 16:57:59;;;;;;;44.63;23.30;;;;;;;;;;4933743;29;20107;-68
2023/01/18 17:00:28;;;;;;;47.63;23.35;;;;;;;;;;4933653;29;20087;-71
2023/01/18 17:02:54;;;;;;;45.63;23.40;;;;;;;;;;4933691;29;20432;-70
2023/01/18 17:05:20;;;;;;;46.58;23.17;;;;;;;;;;4933707;29;20054;-69
2023/01/18 17:07:46;;;;;;;37.45;18.70;;;;;;;;;;4933739;29;20024;-68
2023/01/18 17:10:15;;;;;;;49.53;22.35;;;;;;;;;;4933625;29;20019;-66
2023/01/18 17:12:41;;;;;;;58.78;26.95;;;;;;;;;;4933433;29;20067;-70
2023/01/18 17:15:07;;;;;;;31.50;14.00;;;;;;;;;;4933191;29;20039;-69
2023/01/18 17:17:34;;;;;;;20.23;9.95;;;;;;;;;;4933095;29;20024;-69
2023/01/18 17:20:00;;;;;;;23.95;10.02;;;;;;;;;;4936473;29;20102;-68
2023/01/18 17:22:26;;;;;;;21.67;8.65;;;;;;;;;;4935938;29;20056;-68
2023/01/18 17:24:53;;;;;;;17.08;7.97;;;;;;;;;;4919633;29;20070;-66
2023/01/18 17:27:19;;;;;;;11.40;5.80;;;;;;;;;;4945745;29;20487;-68
2023/01/18 17:29:46;;;;;;;11.85;5.78;;;;;;;;;;4946947;29;20078;-67
2023/01/18 17:32:12;;;;;;;48.95;22.02;;;;;;;;;;4946674;29;20118;-67
2023/01/18 17:34:38;;;;;;;50.13;21.75;;;;;;;;;;4944987;29;20020;-70
2023/01/18 17:37:04;;;;;;;17.05;8.85;;;;;;;;;;4944633;29;20085;-73
2023/01/18 17:39:30;;;;;;;21.02;9.48;;;;;;;;;;4946353;29;20138;-69
2023/01/18 17:41:56;;;;;;;25.40;12.30;;;;;;;;;;4944964;29;20476;-70
2023/01/18 17:44:23;;;;;;;21.45;9.48;;;;;;;;;;4944490;29;20055;-69
2023/01/18 17:46:49;;;;;;;15.13;7.00;;;;;;;;;;4928507;29;20062;-70
2023/01/18 17:49:15;;;;;;;25.08;11.85;;;;;;;;;;4944585;29;20032;-70
2023/01/18 17:51:41;;;;;;;17.45;8.20;;;;;;;;;;4944738;29;20037;-74
2023/01/18 17:54:07;;;;;;;19.13;8.63;;;;;;;;;;4954870;29;20106;-70
2023/01/18 17:56:33;;;;;;;21.73;10.07;;;;;;;;;;4956087;29;20315;-70
2023/01/18 17:58:59;;;;;;;14.45;7.60;;;;;;;;;;4946439;29;20031;-70
2023/01/18 18:01:25;;;;;;;13.85;7.90;;;;;;;;;;4943952;29;20031;-70
2023/01/18 18:03:51;;;;;;;38.47;19.83;;;;;;;;;;4936422;29;20028;-70
2023/01/18 18:06:18;;;;;;;19.48;10.38;;;;;;;;;;4936562;29;20039;-70
2023/01/18 18:08:44;;;;;;;21.88;10.43;;;;;;;;;;4944245;29;20042;-72
2023/01/18 18:11:11;;;;;;;20.58;10.80;;;;;;;;;;4927309;29;20032;-71
2023/01/18 18:13:37;;;;;;;24.63;12.05;;;;;;;;;;4945793;29;20102;-72
2023/01/18 18:16:04;;;;;;;31.45;15.40;;;;;;;;;;4944067;29;20020;-71
2023/01/18 18:18:30;;;;;;;91.82;41.63;;;;;;;;;;4944124;29;20479;-70
2023/01/18 18:20:57;;;;;;;44.85;20.98;;;;;;;;;;4950608;29;20087;-70
2023/01/18 18:23:23;;;;;;;24.08;11.15;;;;;;;;;;4951319;28;20867;-70
2023/01/18 18:25:49;;;;;;;21.23;11.07;;;;;;;;;;4955472;29;20468;-70
2023/01/18 18:28:16;;;;;;;30.63;15.07;;;;;;;;;;4955257;29;20031;-71
2023/01/18 18:30:44;;;;;;;22.80;10.57;;;;;;;;;;4954676;28;20082;-70
2023/01/18 18:33:10;;;;;;;20.55;9.88;;;;;;;;;;4954988;29;20094;-70
2023/01/18 18:35:36;;;;;;;31.45;14.15;;;;;;;;;;4955227;29;20428;-70
2023/01/18 18:38:02;;;;;;;23.92;10.40;;;;;;;;;;4955203;29;20538;-70
2023/01/18 18:40:28;;;;;;;27.85;12.07;;;;;;;;;;4932684;29;20471;-75
2023/01/18 18:42:55;;;;;;;47.00;19.77;;;;;;;;;;4936043;29;20086;-72
2023/01/18 18:45:20;;;;;;;6.93;3.08;;;;;;;;;;4934780;29;20027;-76
2023/01/18 18:47:47;;;;;;;6.78;2.97;;;;;;;;;;4939831;29;20488;-74
2023/01/18 18:50:13;;;;;;;7.63;2.95;;;;;;;;;;4935290;29;20318;-71
2023/01/18 18:52:39;;;;;;;7.95;3.30;;;;;;;;;;4934804;29;20038;-71
2023/01/18 18:55:05;;;;;;;13.90;6.18;;;;;;;;;;4934895;29;20043;-70
2023/01/18 18:57:31;;;;;;;21.60;9.63;;;;;;;;;;4935104;29;20028;-70
2023/01/18 18:59:57;;;;;;;19.63;10.07;;;;;;;;;;4935433;29;20106;-70
2023/01/18 19:02:23;;;;;;;25.63;12.77;;;;;;;;;;4935518;29;20107;-71
2023/01/18 19:04:49;;;;;;;29.08;15.02;;;;;;;;;;4932394;29;20483;-67
2023/01/18 19:07:16;;;;;;;64.55;24.30;;;;;;;;;;4934670;29;20028;-68
2023/01/18 19:09:42;;;;;;;40.22;19.45;;;;;;;;;;4928786;29;20031;-69
2023/01/18 19:12:08;;;;;;;37.53;19.95;;;;;;;;;;4940650;29;20272;-70
2023/01/18 19:14:34;;;;;;;32.78;17.60;;;;;;;;;;4941144;29;20024;-69
2023/01/18 19:17:00;;;;;;;36.70;18.92;;;;;;;;;;4936446;29;20387;-69
2023/01/18 19:19:26;;;;;;;39.42;20.48;;;;;;;;;;4939870;29;20058;-69
2023/01/18 19:21:52;;;;;;;34.97;18.95;;;;;;;;;;4942988;29;20071;-69
2023/01/18 19:24:18;;;;;;;41.97;21.88;;;;;;;;;;4940729;29;20036;-69
2023/01/18 19:26:44;;;;;;;37.42;20.05;;;;;;;;;;4943945;29;20483;-69
2023/01/18 19:29:11;;;;;;;26.58;14.18;;;;;;;;;;4940949;29;20115;-70
2023/01/18 19:31:38;;;;;;;38.42;18.58;;;;;;;;;;4937246;29;20046;-70
2023/01/18 19:34:04;;;;;;;23.30;12.57;;;;;;;;;;4932969;29;20028;-69
2023/01/18 19:36:30;;;;;;;23.15;11.35;;;;;;;;;;4937270;29;20023;-69
2023/01/18 19:38:57;;;;;;;19.75;10.70;;;;;;;;;;4912756;29;20091;-69
2023/01/18 19:41:24;;;;;;;21.65;11.25;;;;;;;;;;4932353;29;20027;-70
2023/01/18 19:43:50;;;;;;;22.77;11.27;;;;;;;;;;4916363;29;20032;-69
2023/01/18 19:46:16;;;;;;;22.00;12.20;;;;;;;;;;4933162;29;20056;-68
2023/01/18 19:48:43;;;;;;;21.67;11.85;;;;;;;;;;4933370;29;20039;-69
2023/01/18 19:51:10;;;;;;;21.08;11.55;;;;;;;;;;4933120;29;20039;-69
2023/01/18 19:53:36;;;;;;;22.98;11.27;;;;;;;;;;4933628;29;20058;-68
2023/01/18 19:56:03;;;;;;;26.85;12.48;;;;;;;;;;4933404;29;20027;-70
2023/01/18 19:58:29;;;;;;;21.83;11.43;;;;;;;;;;4934030;29;20062;-67
2023/01/18 20:00:58;;;;;;;24.65;13.23;;;;;;;;;;4933240;29;20016;-68
2023/01/18 20:03:24;;;;;;;26.35;15.00;;;;;;;;;;4933896;29;20070;-68
2023/01/18 20:05:50;;;;;;;30.60;16.63;;;;;;;;;;4933555;29;20071;-69
2023/01/18 20:08:16;;;;;;;37.20;19.25;;;;;;;;;;4916162;29;20036;-70
2023/01/18 20:10:42;;;;;;;38.15;20.20;;;;;;;;;;4933603;29;20028;-68
2023/01/18 20:13:08;;;;;;;41.08;22.33;;;;;;;;;;4933064;29;20031;-72
2023/01/18 20:15:35;;;;;;;40.05;22.48;;;;;;;;;;4938818;29;20035;-65
2023/01/18 20:18:01;;;;;;;46.78;24.40;;;;;;;;;;4946240;29;20491;-67
2023/01/18 20:20:27;;;;;;;48.30;25.98;;;;;;;;;;4950987;29;20062;-65
2023/01/18 20:22:53;;;;;;;50.83;27.27;;;;;;;;;;4952038;28;20066;-70
2023/01/18 20:25:19;;;;;;;51.50;28.20;;;;;;;;;;4952235;29;20082;-64
2023/01/18 20:27:45;;;;;;;55.17;28.15;;;;;;;;;;4952589;29;20042;-63
2023/01/18 20:30:11;;;;;;;71.32;34.13;;;;;;;;;;4930872;29;20024;-69
2023/01/18 20:32:37;;;;;;;57.70;29.83;;;;;;;;;;4914347;29;20144;-65
2023/01/18 20:35:03;;;;;;;57.03;30.10;;;;;;;;;;4923838;29;20036;-63
2023/01/18 20:37:29;;;;;;;61.00;30.38;;;;;;;;;;4915637;29;20130;-69
2023/01/18 20:39:56;;;;;;;70.70;34.30;;;;;;;;;;4933453;29;20111;-64
2023/01/18 20:42:22;;;;;;;64.40;31.40;;;;;;;;;;4933445;29;20031;-66
2023/01/18 20:44:52;;;;;;;46.80;26.75;;;;;;;;;;4933116;29;20046;-66
2023/01/18 20:47:18;;;;;;;115.07;43.25;;;;;;;;;;4932795;29;20027;-69
2023/01/18 20:49:45;;;;;;;55.83;29.15;;;;;;;;;;4933256;29;20024;-64
2023/01/18 20:52:11;;;;;;;66.05;30.35;;;;;;;;;;4936737;29;20046;-67
2023/01/18 20:54:37;;;;;;;54.58;29.77;;;;;;;;;;4934950;29;20063;-63
2023/01/18 20:57:04;;;;;;;55.97;30.63;;;;;;;;;;4932993;29;20104;-68
2023/01/18 20:59:30;;;;;;;59.47;30.70;;;;;;;;;;4915675;29;20054;-70
2023/01/18 21:01:56;;;;;;;57.50;30.13;;;;;;;;;;4933070;29;20547;-67
2023/01/18 21:04:24;;;;;;;51.63;28.40;;;;;;;;;;4915894;29;20055;-64
2023/01/18 21:06:50;;;;;;;47.05;26.85;;;;;;;;;;4940977;29;20050;-67
2023/01/18 21:09:16;;;;;;;48.53;27.33;;;;;;;;;;4951740;29;20039;-66
2023/01/18 21:11:42;;;;;;;46.25;27.35;;;;;;;;;;4951981;29;20035;-68
2023/01/18 21:14:09;;;;;;;45.22;26.33;;;;;;;;;;4949467;29;20028;-65
2023/01/18 21:16:35;;;;;;;44.83;25.95;;;;;;;;;;4915846;29;20024;-68
2023/01/18 21:19:01;;;;;;;51.63;28.77;;;;;;;;;;4915574;29;20024;-65
2023/01/18 21:21:28;;;;;;;27.85;15.55;;;;;;;;;;4944728;29;20086;-67
2023/01/18 21:23:55;;;;;;;26.75;15.02;;;;;;;;;;4951567;28;20078;-69
2023/01/18 21:26:21;;;;;;;25.17;14.05;;;;;;;;;;4936314;29;20038;-63
2023/01/18 21:28:47;;;;;;;23.55;12.32;;;;;;;;;;4932380;29;20035;-66
2023/01/18 21:31:13;;;;;;;24.83;12.77;;;;;;;;;;4932331;29;20555;-64
2023/01/18 21:33:39;;;;;;;24.05;13.10;;;;;;;;;;4932401;29;20056;-63
2023/01/18 21:36:07;;;;;;;30.60;17.45;;;;;;;;;;4932538;29;20388;-63
2023/01/18 21:38:33;;;;;;;36.40;20.45;;;;;;;;;;4915217;29;20038;-64
2023/01/18 21:45:53;;;;;;;40.05;22.70;;;;;;;;;;4933847;29;20774;-64
2023/01/18 21:46:30;;;;;;;40.22;23.77;;;;;;;;;;4951110;29;20038;-63
2023/01/18 21:48:56;;;;;;;47.25;24.73;;;;;;;;;;4948283;29;20115;-63
2023/01/18 21:54:16;;;;;;;37.00;21.15;;;;;;;;;;4951355;29;20090;-65
2023/01/18 21:56:43;;;;;;;36.03;19.88;;;;;;;;;;4934047;29;20058;-63